Mount Shasta, CA

1:45 AM PDT on April 02, 2015 (GMT -0700)
RAWS | | Change Station
CLOSE
Current Station
Personal Weather Station
Location: Mount Shasta, CA
Elevation: 3573 ft
Nearby Weather Stations

Elev 3573 ft 41.32 °N, 122.32 °W | Updated 51 minutes ago

Mostly Cloudy
Mostly Cloudy
35 °F
Feels Like 29 °F
N
8
Wind Variable Wind from NW
Gusts 22.0 mph

Today
High -- | Low -- °F
--% Chance of Precip.
Yesterday
High -- | Low -- °F
Precip. -- in
6:51 AM 7:35 PM
Waxing Gibbous, 96% visible
Pressure 30.22 in
Visibility 10.0 miles
Clouds Scattered Clouds 2400 ft
Windchill 29 °F
Dew Point 28 °F
Humidity 74%
Rainfall in
Snow Depth Not available.
UV 0 out of 12
Pollen 10.40 out of 12
Air Quality Not available.
Flu Activity Not available.
SPECI KMHS 020831Z AUTO 32008G20KT 10SM SCT024 02/M03 A3022 RMK AO2 SNE04 P0000 T00171028

More Conditions Fewer Conditions

Pressure 30.22 in
Visibility 10.0 miles
Clouds Scattered Clouds 2400 ft
Windchill 29 °F
Dew Point 28 °F
Humidity 74%
Rainfall in
Snow Depth Not available.
UV 0 out of 12
Pollen 10.40 out of 12
Air Quality Not available.
Flu Activity Not available.
SPECI KMHS 020831Z AUTO 32008G20KT 10SM SCT024 02/M03 A3022 RMK AO2 SNE04 P0000 T00171028

More Conditions Fewer Conditions

10-Day Weather Forecast

Almanac

Astronomy

Apr. 02, 2015 Rise Set
Actual Time
Civil Twilight
Nautical Twilight
Astronomical Twilight
Moon
Length of Visible Light
Length of Day
Tomorrow will be .
, % of the Moon is Illuminated

Today's Extremes

State Highs State Lows

Community

WunderPhotos

Upload Photos

1,810,208 photos uploaded!

WunderBlogs® & News

Nearby

Air Quality

  Air Quality AQ Index Pollutant
Not available.

Snow Depth

Station Depth Elevation

Earthquake Activity

City Distance Mag. Time & Date
Minimum magnitude displayed is 2.5.

Coastal Water Temperatures

Place Temperature

Stations

Nearby Weather Stations

Station Location Temp. Windchill Dew Point Humidity Wind Precip. Elev Updated Type